sensor_id;sensor_type;location;lat;lon;timestamp;pressure;altitude;pressure_sealevel;temperature;humidity
21640;BME280;10981;45.462;10.974;2023-11-19T00:01:01;101276.38;;;4.30;100.00
21640;BME280;10981;45.462;10.974;2023-11-19T00:03:30;101275.03;;;4.21;100.00
21640;BME280;10981;45.462;10.974;2023-11-19T00:05:59;101275.47;;;4.12;100.00
21640;BME280;10981;45.462;10.974;2023-11-19T00:08:27;101271.75;;;4.17;100.00
21640;BME280;10981;45.462;10.974;2023-11-19T00:10:56;101276.03;;;4.37;100.00
21640;BME280;10981;45.462;10.974;2023-11-19T00:13:24;101268.28;;;4.37;100.00
21640;BME280;10981;45.462;10.974;2023-11-19T00:15:54;101258.69;;;4.39;100.00
21640;BME280;10981;45.462;10.974;2023-11-19T00:18:22;101249.72;;;4.47;100.00
21640;BME280;10981;45.462;10.974;2023-11-19T00:20:50;101245.94;;;4.54;100.00
21640;BME280;10981;45.462;10.974;2023-11-19T00:23:18;101230.94;;;4.61;100.00
21640;BME280;10981;45.462;10.974;2023-11-19T00:25:46;101238.91;;;4.75;100.00
21640;BME280;10981;45.462;10.974;2023-11-19T00:28:15;101246.75;;;4.93;100.00
21640;BME280;10981;45.462;10.974;2023-11-19T00:30:44;101249.19;;;4.96;100.00
21640;BME280;10981;45.462;10.974;2023-11-19T00:33:12;101248.97;;;5.00;100.00
21640;BME280;10981;45.462;10.974;2023-11-19T00:35:40;101242.31;;;4.95;100.00
21640;BME280;10981;45.462;10.974;2023-11-19T00:38:11;101251.78;;;4.96;100.00
21640;BME280;10981;45.462;10.974;2023-11-19T00:40:39;101247.84;;;4.87;100.00
21640;BME280;10981;45.462;10.974;2023-11-19T00:43:08;101244.50;;;4.85;100.00
21640;BME280;10981;45.462;10.974;2023-11-19T00:45:37;101243.75;;;4.83;100.00
21640;BME280;10981;45.462;10.974;2023-11-19T00:48:08;101235.88;;;4.84;100.00
21640;BME280;10981;45.462;10.974;2023-11-19T00:50:36;101246.03;;;4.89;100.00
21640;BME280;10981;45.462;10.974;2023-11-19T00:53:06;101241.31;;;4.97;100.00
21640;BME280;10981;45.462;10.974;2023-11-19T00:55:34;101245.59;;;4.98;100.00
21640;BME280;10981;45.462;10.974;2023-11-19T00:58:13;101230.72;;;5.02;100.00
21640;BME280;10981;45.462;10.974;2023-11-19T01:00:41;101238.22;;;5.08;100.00
21640;BME280;10981;45.462;10.974;2023-11-19T01:03:11;101233.09;;;5.06;100.00
21640;BME280;10981;45.462;10.974;2023-11-19T01:05:40;101234.06;;;5.04;100.00
21640;BME280;10981;45.462;10.974;2023-11-19T01:08:08;101214.56;;;4.97;100.00
21640;BME280;10981;45.462;10.974;2023-11-19T01:10:37;101221.72;;;4.91;100.00
21640;BME280;10981;45.462;10.974;2023-11-19T01:13:05;101223.53;;;4.89;100.00
21640;BME280;10981;45.462;10.974;2023-11-19T01:15:34;101218.34;;;4.89;100.00
21640;BME280;10981;45.462;10.974;2023-11-19T01:18:02;101218.22;;;4.93;100.00
21640;BME280;10981;45.462;10.974;2023-11-19T01:20:33;101207.78;;;4.94;100.00
21640;BME280;10981;45.462;10.974;2023-11-19T01:23:02;101214.41;;;5.00;100.00
21640;BME280;10981;45.462;10.974;2023-11-19T01:25:30;101213.97;;;5.09;100.00
21640;BME280;10981;45.462;10.974;2023-11-19T01:27:59;101215.09;;;5.03;100.00
21640;BME280;10981;45.462;10.974;2023-11-19T01:30:30;101209.47;;;4.95;100.00
21640;BME280;10981;45.462;10.974;2023-11-19T01:33:00;101201.28;;;4.85;100.00
21640;BME280;10981;45.462;10.974;2023-11-19T01:35:28;101195.69;;;4.75;100.00
21640;BME280;10981;45.462;10.974;2023-11-19T01:37:56;101198.63;;;4.68;100.00
21640;BME280;10981;45.462;10.974;2023-11-19T01:40:24;101204.03;;;4.63;100.00
21640;BME280;10981;45.462;10.974;2023-11-19T01:42:52;101187.66;;;4.63;100.00
21640;BME280;10981;45.462;10.974;2023-11-19T01:45:40;101190.75;;;4.71;100.00
21640;BME280;10981;45.462;10.974;2023-11-19T01:48:08;101190.50;;;4.75;100.00
21640;BME280;10981;45.462;10.974;2023-11-19T01:50:39;101189.59;;;4.77;100.00
21640;BME280;10981;45.462;10.974;2023-11-19T01:53:07;101199.59;;;4.84;100.00
21640;BME280;10981;45.462;10.974;2023-11-19T01:55:36;101188.81;;;4.74;100.00
21640;BME280;10981;45.462;10.974;2023-11-19T01:58:04;101189.88;;;4.70;100.00
21640;BME280;10981;45.462;10.974;2023-11-19T02:00:33;101195.75;;;4.74;100.00
21640;BME280;10981;45.462;10.974;2023-11-19T02:03:02;101187.16;;;4.73;100.00
21640;BME280;10981;45.462;10.974;2023-11-19T02:05:31;101170.97;;;4.68;100.00
21640;BME280;10981;45.462;10.974;2023-11-19T02:08:01;101172.03;;;4.64;100.00
21640;BME280;10981;45.462;10.974;2023-11-19T02:10:29;101173.63;;;4.67;100.00
21640;BME280;10981;45.462;10.974;2023-11-19T02:12:57;101172.94;;;4.63;100.00
21640;BME280;10981;45.462;10.974;2023-11-19T02:15:34;101164.41;;;4.61;100.00
21640;BME280;10981;45.462;10.974;2023-11-19T02:18:22;101159.94;;;4.65;100.00
21640;BME280;10981;45.462;10.974;2023-11-19T02:20:51;101146.41;;;4.58;100.00
21640;BME280;10981;45.462;10.974;2023-11-19T02:23:20;101153.50;;;4.54;100.00
21640;BME280;10981;45.462;10.974;2023-11-19T02:26:02;101156.38;;;4.48;100.00
21640;BME280;10981;45.462;10.974;2023-11-19T02:28:31;101149.16;;;4.55;100.00
21640;BME280;10981;45.462;10.974;2023-11-19T02:31:01;101139.91;;;4.49;100.00
21640;BME280;10981;45.462;10.974;2023-11-19T02:33:29;101140.13;;;4.45;100.00
21640;BME280;10981;45.462;10.974;2023-11-19T02:35:58;101133.63;;;4.36;100.00
21640;BME280;10981;45.462;10.974;2023-11-19T02:38:26;101121.88;;;4.29;100.00
21640;BME280;10981;45.462;10.974;2023-11-19T02:40:54;101126.41;;;4.42;100.00
21640;BME280;10981;45.462;10.974;2023-11-19T02:43:22;101130.47;;;4.48;100.00
21640;BME280;10981;45.462;10.974;2023-11-19T02:45:51;101123.59;;;4.47;100.00
21640;BME280;10981;45.462;10.974;2023-11-19T02:48:20;101130.69;;;4.44;100.00
21640;BME280;10981;45.462;10.974;2023-11-19T02:50:50;101126.31;;;4.44;100.00
21640;BME280;10981;45.462;10.974;2023-11-19T02:53:20;101114.09;;;4.29;100.00
21640;BME280;10981;45.462;10.974;2023-11-19T02:55:51;101123.31;;;4.17;100.00
21640;BME280;10981;45.462;10.974;2023-11-19T02:58:19;101115.03;;;4.08;100.00
21640;BME280;10981;45.462;10.974;2023-11-19T03:00:50;101110.16;;;4.02;100.00
21640;BME280;10981;45.462;10.974;2023-11-19T03:03:38;101099.94;;;3.99;100.00
21640;BME280;10981;45.462;10.974;2023-11-19T03:06:07;101101.63;;;4.00;100.00
21640;BME280;10981;45.462;10.974;2023-11-19T03:08:37;101108.31;;;4.04;100.00
21640;BME280;10981;45.462;10.974;2023-11-19T03:11:05;101105.81;;;4.03;100.00
21640;BME280;10981;45.462;10.974;2023-11-19T03:13:33;101103.38;;;4.00;100.00
21640;BME280;10981;45.462;10.974;2023-11-19T03:16:01;101103.38;;;4.00;100.00
21640;BME280;10981;45.462;10.974;2023-11-19T03:18:30;101108.47;;;4.01;100.00
21640;BME280;10981;45.462;10.974;2023-11-19T03:20:58;101109.22;;;4.03;100.00
21640;BME280;10981;45.462;10.974;2023-11-19T03:23:26;101104.84;;;4.05;100.00
21640;BME280;10981;45.462;10.974;2023-11-19T03:25:57;101100.78;;;4.00;100.00
21640;BME280;10981;45.462;10.974;2023-11-19T03:28:26;101108.47;;;4.01;100.00
21640;BME280;10981;45.462;10.974;2023-11-19T03:30:55;101105.00;;;4.02;100.00
21640;BME280;10981;45.462;10.974;2023-11-19T03:33:23;101105.03;;;4.01;100.00
21640;BME280;10981;45.462;10.974;2023-11-19T03:35:54;101107.16;;;4.12;100.00
21640;BME280;10981;45.462;10.974;2023-11-19T03:38:24;101095.09;;;4.11;100.00
21640;BME280;10981;45.462;10.974;2023-11-19T03:40:53;101093.50;;;4.08;100.00
21640;BME280;10981;45.462;10.974;2023-11-19T03:43:21;101090.06;;;4.07;100.00
21640;BME280;10981;45.462;10.974;2023-11-19T03:45:49;101089.50;;;4.01;100.00
21640;BME280;10981;45.462;10.974;2023-11-19T03:48:17;101086.91;;;4.01;100.00
21640;BME280;10981;45.462;10.974;2023-11-19T03:50:47;101084.19;;;4.04;100.00
21640;BME280;10981;45.462;10.974;2023-11-19T03:53:17;101089.66;;;3.98;100.00
21640;BME280;10981;45.462;10.974;2023-11-19T03:55:46;101087.00;;;3.99;100.00
21640;BME280;10981;45.462;10.974;2023-11-19T03:58:17;101072.97;;;4.03;100.00
21640;BME280;10981;45.462;10.974;2023-11-19T04:00:45;101070.34;;;4.05;100.00
21640;BME280;10981;45.462;10.974;2023-11-19T04:03:13;101080.63;;;4.06;100.00
21640;BME280;10981;45.462;10.974;2023-11-19T04:05:41;101083.56;;;3.99;100.00
21640;BME280;10981;45.462;10.974;2023-11-19T04:08:10;101077.97;;;3.89;100.00
21640;BME280;10981;45.462;10.974;2023-11-19T04:10:38;101072.09;;;3.85;100.00
21640;BME280;10981;45.462;10.974;2023-11-19T04:13:06;101069.78;;;3.79;100.00
21640;BME280;10981;45.462;10.974;2023-11-19T04:15:35;101073.59;;;3.72;100.00
21640;BME280;10981;45.462;10.974;2023-11-19T04:18:03;101078.69;;;3.73;100.00
21640;BME280;10981;45.462;10.974;2023-11-19T04:20:31;101084.84;;;3.71;100.00
21640;BME280;10981;45.462;10.974;2023-11-19T04:22:59;101074.56;;;3.69;100.00
21640;BME280;10981;45.462;10.974;2023-11-19T04:25:28;101065.81;;;3.72;100.00
21640;BME280;10981;45.462;10.974;2023-11-19T04:27:57;101065.19;;;3.67;100.00
21640;BME280;10981;45.462;10.974;2023-11-19T04:30:25;101066.94;;;3.66;100.00
21640;BME280;10981;45.462;10.974;2023-11-19T04:32:53;101069.44;;;3.68;100.00
21640;BME280;10981;45.462;10.974;2023-11-19T04:35:21;101071.03;;;3.70;100.00
21640;BME280;10981;45.462;10.974;2023-11-19T04:37:52;101073.16;;;3.62;100.00
21640;BME280;10981;45.462;10.974;2023-11-19T04:40:20;101070.56;;;3.62;100.00
21640;BME280;10981;45.462;10.974;2023-11-19T04:42:51;101066.44;;;3.58;100.00
21640;BME280;10981;45.462;10.974;2023-11-19T04:45:19;101066.44;;;3.58;100.00
21640;BME280;10981;45.462;10.974;2023-11-19T04:47:48;101062.19;;;3.57;100.00
21640;BME280;10981;45.462;10.974;2023-11-19T04:50:16;101065.25;;;3.65;100.00
21640;BME280;10981;45.462;10.974;2023-11-19T04:52:47;101067.81;;;3.65;100.00
21640;BME280;10981;45.462;10.974;2023-11-19T04:55:15;101062.53;;;3.68;100.00
21640;BME280;10981;45.462;10.974;2023-11-19T04:57:44;101050.69;;;3.63;100.00
21640;BME280;10981;45.462;10.974;2023-11-19T05:00:12;101054.50;;;3.55;100.00
21640;BME280;10981;45.462;10.974;2023-11-19T05:02:48;101039.94;;;3.53;100.00
21640;BME280;10981;45.462;10.974;2023-11-19T05:05:16;101041.94;;;3.65;100.00
21640;BME280;10981;45.462;10.974;2023-11-19T05:07:45;101042.88;;;3.64;100.00
21640;BME280;10981;45.462;10.974;2023-11-19T05:10:13;101046.56;;;3.58;100.00
21640;BME280;10981;45.462;10.974;2023-11-19T05:12:42;101045.88;;;3.55;100.00
21640;BME280;10981;45.462;10.974;2023-11-19T05:15:10;101039.03;;;3.54;100.00
21640;BME280;10981;45.462;10.974;2023-11-19T05:17:40;101035.88;;;3.47;100.00
21640;BME280;10981;45.462;10.974;2023-11-19T05:20:08;101036.16;;;3.41;100.00
21640;BME280;10981;45.462;10.974;2023-11-19T05:22:42;101032.09;;;3.35;100.00
21640;BME280;10981;45.462;10.974;2023-11-19T05:25:10;101022.84;;;3.30;100.00
21640;BME280;10981;45.462;10.974;2023-11-19T05:27:39;101027.00;;;3.34;100.00
21640;BME280;10981;45.462;10.974;2023-11-19T05:30:08;101029.44;;;3.37;100.00
21640;BME280;10981;45.462;10.974;2023-11-19T05:32:38;101034.41;;;3.41;100.00
21640;BME280;10981;45.462;10.974;2023-11-19T05:35:07;101024.97;;;3.40;100.00
21640;BME280;10981;45.462;10.974;2023-11-19T05:37:36;101009.53;;;3.39;100.00
21640;BME280;10981;45.462;10.974;2023-11-19T05:40:05;101010.44;;;3.38;100.00
21640;BME280;10981;45.462;10.974;2023-11-19T05:42:41;101026.84;;;3.37;100.00
21640;BME280;10981;45.462;10.974;2023-11-19T05:45:11;101024.41;;;3.34;100.00
21640;BME280;10981;45.462;10.974;2023-11-19T05:47:41;101023.50;;;3.35;100.00
21640;BME280;10981;45.462;10.974;2023-11-19T05:50:10;101017.56;;;3.33;100.00
21640;BME280;10981;45.462;10.974;2023-11-19T05:52:39;101025.94;;;3.38;100.00
21640;BME280;10981;45.462;10.974;2023-11-19T05:55:08;101014.81;;;3.36;100.00
21640;BME280;10981;45.462;10.974;2023-11-19T05:57:39;101011.59;;;3.31;100.00
21640;BME280;10981;45.462;10.974;2023-11-19T06:00:12;101016.69;;;3.32;100.00
21640;BME280;10981;45.462;10.974;2023-11-19T06:02:41;101008.25;;;3.29;100.00
21640;BME280;10981;45.462;10.974;2023-11-19T06:05:09;101012.72;;;3.25;100.00
21640;BME280;10981;45.462;10.974;2023-11-19T06:07:38;101014.59;;;3.21;100.00
21640;BME280;10981;45.462;10.974;2023-11-19T06:10:09;101002.47;;;3.23;100.00
21640;BME280;10981;45.462;10.974;2023-11-19T06:12:39;101002.47;;;3.23;100.00
21640;BME280;10981;45.462;10.974;2023-11-19T06:15:09;100993.91;;;3.21;100.00
21640;BME280;10981;45.462;10.974;2023-11-19T06:17:37;100997.50;;;3.19;100.00
21640;BME280;10981;45.462;10.974;2023-11-19T06:20:06;100997.69;;;3.33;100.00
21640;BME280;10981;45.462;10.974;2023-11-19T06:22:35;101009.88;;;3.31;100.00
21640;BME280;10981;45.462;10.974;2023-11-19T06:25:04;100994.28;;;3.14;100.00
21640;BME280;10981;45.462;10.974;2023-11-19T06:27:35;101001.41;;;3.27;100.00
21640;BME280;10981;45.462;10.974;2023-11-19T06:30:04;101018.34;;;3.35;100.00
21640;BME280;10981;45.462;10.974;2023-11-19T06:32:33;101014.19;;;3.31;100.00
21640;BME280;10981;45.462;10.974;2023-11-19T06:35:02;101003.72;;;3.34;100.00
21640;BME280;10981;45.462;10.974;2023-11-19T06:37:32;101000.34;;;3.51;100.00
21640;BME280;10981;45.462;10.974;2023-11-19T06:40:00;101007.50;;;3.46;100.00
21640;BME280;10981;45.462;10.974;2023-11-19T06:42:29;101005.19;;;3.39;100.00
21640;BME280;10981;45.462;10.974;2023-11-19T06:44:57;101004.69;;;3.31;100.00
21640;BME280;10981;45.462;10.974;2023-11-19T06:47:26;101008.03;;;3.14;100.00
21640;BME280;10981;45.462;10.974;2023-11-19T06:49:55;101000.53;;;3.08;100.00
21640;BME280;10981;45.462;10.974;2023-11-19T06:52:24;101000.75;;;3.03;100.00
21640;BME280;10981;45.462;10.974;2023-11-19T06:54:52;101007.72;;;3.01;100.00
21640;BME280;10981;45.462;10.974;2023-11-19T06:57:35;101006.81;;;3.02;100.00
21640;BME280;10981;45.462;10.974;2023-11-19T07:00:04;101018.50;;;3.11;100.00
21640;BME280;10981;45.462;10.974;2023-11-19T07:02:33;101017.03;;;3.24;100.00
21640;BME280;10981;45.462;10.974;2023-11-19T07:05:02;101027.72;;;3.37;100.00
21640;BME280;10981;45.462;10.974;2023-11-19T07:07:32;101030.97;;;3.41;100.00
21640;BME280;10981;45.462;10.974;2023-11-19T07:10:01;101031.56;;;3.48;100.00
21640;BME280;10981;45.462;10.974;2023-11-19T07:12:30;101033.00;;;3.53;100.00
21640;BME280;10981;45.462;10.974;2023-11-19T07:14:59;101025.75;;;3.62;100.00
21640;BME280;10981;45.462;10.974;2023-11-19T07:17:29;101030.91;;;3.81;100.00
21640;BME280;10981;45.462;10.974;2023-11-19T07:19:57;101031.25;;;3.92;100.00
21640;BME280;10981;45.462;10.974;2023-11-19T07:22:28;101023.03;;;4.01;100.00
21640;BME280;10981;45.462;10.974;2023-11-19T07:24:58;101022.69;;;4.09;100.00
21640;BME280;10981;45.462;10.974;2023-11-19T07:27:27;101030.06;;;4.17;100.00
21640;BME280;10981;45.462;10.974;2023-11-19T07:29:55;101032.06;;;4.29;100.00
21640;BME280;10981;45.462;10.974;2023-11-19T07:32:24;101033.31;;;4.39;100.00
21640;BME280;10981;45.462;10.974;2023-11-19T07:34:52;101032.75;;;4.50;100.00
21640;BME280;10981;45.462;10.974;2023-11-19T07:37:20;101026.19;;;4.61;100.00
21640;BME280;10981;45.462;10.974;2023-11-19T07:39:49;101035.81;;;4.76;100.00
21640;BME280;10981;45.462;10.974;2023-11-19T07:42:17;101039.25;;;4.77;100.00
21640;BME280;10981;45.462;10.974;2023-11-19T07:44:45;101038.53;;;4.90;100.00
21640;BME280;10981;45.462;10.974;2023-11-19T07:47:14;101039.06;;;4.97;100.00
21640;BME280;10981;45.462;10.974;2023-11-19T07:49:42;101043.69;;;5.08;100.00
21640;BME280;10981;45.462;10.974;2023-11-19T07:52:12;101050.78;;;5.22;100.00
21640;BME280;10981;45.462;10.974;2023-11-19T07:54:43;101051.63;;;5.38;100.00
21640;BME280;10981;45.462;10.974;2023-11-19T07:57:13;101057.75;;;5.53;100.00
21640;BME280;10981;45.462;10.974;2023-11-19T07:59:41;101063.22;;;5.65;100.00
21640;BME280;10981;45.462;10.974;2023-11-19T08:02:09;101070.84;;;5.68;100.00
21640;BME280;10981;45.462;10.974;2023-11-19T08:04:38;101072.53;;;5.69;100.00
21640;BME280;10981;45.462;10.974;2023-11-19T08:07:08;101076.88;;;5.68;100.00
21640;BME280;10981;45.462;10.974;2023-11-19T08:09:37;101087.84;;;5.73;100.00
21640;BME280;10981;45.462;10.974;2023-11-19T08:12:06;101085.69;;;5.82;100.00
21640;BME280;10981;45.462;10.974;2023-11-19T08:14:35;101082.25;;;5.97;100.00
21640;BME280;10981;45.462;10.974;2023-11-19T08:17:04;101083.34;;;6.09;100.00
21640;BME280;10981;45.462;10.974;2023-11-19T08:19:35;101075.56;;;6.25;100.00
21640;BME280;10981;45.462;10.974;2023-11-19T08:22:03;101080.72;;;6.41;100.00
21640;BME280;10981;45.462;10.974;2023-11-19T08:24:31;101061.47;;;6.60;100.00
21640;BME280;10981;45.462;10.974;2023-11-19T08:27:00;101065.50;;;6.80;100.00
21640;BME280;10981;45.462;10.974;2023-11-19T08:29:30;101057.38;;;7.00;100.00
21640;BME280;10981;45.462;10.974;2023-11-19T08:31:59;101068.06;;;7.25;100.00
21640;BME280;10981;45.462;10.974;2023-11-19T08:34:30;101077.16;;;7.46;100.00
21640;BME280;10981;45.462;10.974;2023-11-19T08:37:00;101069.88;;;7.66;100.00
21640;BME280;10981;45.462;10.974;2023-11-19T08:39:28;101071.47;;;7.83;100.00
21640;BME280;10981;45.462;10.974;2023-11-19T08:41:59;101086.00;;;8.00;100.00
21640;BME280;10981;45.462;10.974;2023-11-19T08:44:27;101077.31;;;8.14;100.00
21640;BME280;10981;45.462;10.974;2023-11-19T08:46:55;101051.94;;;8.30;100.00
21640;BME280;10981;45.462;10.974;2023-11-19T08:49:23;101059.69;;;8.45;100.00
21640;BME280;10981;45.462;10.974;2023-11-19T08:51:51;101083.94;;;8.60;100.00
21640;BME280;10981;45.462;10.974;2023-11-19T08:54:20;101072.72;;;8.72;100.00
21640;BME280;10981;45.462;10.974;2023-11-19T08:56:49;101067.28;;;8.88;100.00
21640;BME280;10981;45.462;10.974;2023-11-19T08:59:18;101069.81;;;9.03;100.00
21640;BME280;10981;45.462;10.974;2023-11-19T09:01:47;101062.81;;;9.16;100.00
21640;BME280;10981;45.462;10.974;2023-11-19T09:04:15;101065.50;;;9.27;100.00
21640;BME280;10981;45.462;10.974;2023-11-19T09:06:44;101064.03;;;9.36;100.00
21640;BME280;10981;45.462;10.974;2023-11-19T09:09:12;101076.56;;;9.44;100.00
21640;BME280;10981;45.462;10.974;2023-11-19T09:11:41;101072.59;;;9.51;100.00
21640;BME280;10981;45.462;10.974;2023-11-19T09:14:09;101062.97;;;9.52;100.00
21640;BME280;10981;45.462;10.974;2023-11-19T09:16:37;101067.25;;;9.53;100.00
21640;BME280;10981;45.462;10.974;2023-11-19T09:19:06;101068.59;;;9.58;100.00
21640;BME280;10981;45.462;10.974;2023-11-19T09:21:34;101061.28;;;9.63;100.00
21640;BME280;10981;45.462;10.974;2023-11-19T09:24:05;101058.34;;;9.68;100.00
21640;BME280;10981;45.462;10.974;2023-11-19T09:26:35;101053.72;;;9.72;100.00
21640;BME280;10981;45.462;10.974;2023-11-19T09:29:04;101041.28;;;9.75;100.00
21640;BME280;10981;45.462;10.974;2023-11-19T09:31:32;101041.06;;;9.78;100.00
21640;BME280;10981;45.462;10.974;2023-11-19T09:34:00;101049.63;;;9.80;100.00
21640;BME280;10981;45.462;10.974;2023-11-19T09:36:29;101054.63;;;9.84;100.00
21640;BME280;10981;45.462;10.974;2023-11-19T09:38:57;101055.69;;;9.81;100.00
21640;BME280;10981;45.462;10.974;2023-11-19T09:41:25;101062.69;;;9.80;100.00
21640;BME280;10981;45.462;10.974;2023-11-19T09:43:56;101056.41;;;9.83;100.00
21640;BME280;10981;45.462;10.974;2023-11-19T09:46:24;101054.19;;;9.90;100.00
21640;BME280;10981;45.462;10.974;2023-11-19T09:48:53;101049.69;;;9.92;100.00
21640;BME280;10981;45.462;10.974;2023-11-19T09:51:24;101046.22;;;9.91;100.00
21640;BME280;10981;45.462;10.974;2023-11-19T09:53:52;101049.34;;;9.96;100.00
21640;BME280;10981;45.462;10.974;2023-11-19T09:56:20;101042.03;;;10.02;100.00
21640;BME280;10981;45.462;10.974;2023-11-19T09:58:52;101039.63;;;9.98;100.00
21640;BME280;10981;45.462;10.974;2023-11-19T10:01:20;101039.63;;;9.98;100.00
21640;BME280;10981;45.462;10.974;2023-11-19T10:03:56;101026.44;;;10.00;100.00
21640;BME280;10981;45.462;10.974;2023-11-19T10:06:25;101020.16;;;10.03;100.00
21640;BME280;10981;45.462;10.974;2023-11-19T10:08:55;101026.13;;;10.05;100.00
21640;BME280;10981;45.462;10.974;2023-11-19T10:11:23;101019.09;;;10.05;100.00
21640;BME280;10981;45.462;10.974;2023-11-19T10:13:54;101011.66;;;10.12;100.00
21640;BME280;10981;45.462;10.974;2023-11-19T10:16:29;101016.44;;;10.18;100.00
21640;BME280;10981;45.462;10.974;2023-11-19T10:19:00;101019.44;;;10.25;100.00
21640;BME280;10981;45.462;10.974;2023-11-19T10:21:32;101004.34;;;10.28;100.00
21640;BME280;10981;45.462;10.974;2023-11-19T10:24:00;100999.41;;;10.37;100.00
21640;BME280;10981;45.462;10.974;2023-11-19T10:26:28;100999.91;;;10.53;100.00
21640;BME280;10981;45.462;10.974;2023-11-19T10:28:57;101014.09;;;10.62;100.00
21640;BME280;10981;45.462;10.974;2023-11-19T10:31:25;101013.75;;;10.67;100.00
21640;BME280;10981;45.462;10.974;2023-11-19T10:33:54;101008.88;;;10.73;100.00
21640;BME280;10981;45.462;10.974;2023-11-19T10:36:23;101010.19;;;10.79;100.00
21640;BME280;10981;45.462;10.974;2023-11-19T10:39:06;101010.19;;;10.90;100.00
21640;BME280;10981;45.462;10.974;2023-11-19T10:41:34;100992.47;;;11.05;98.28
21640;BME280;10981;45.462;10.974;2023-11-19T10:44:03;100972.00;;;11.22;96.76
21640;BME280;10981;45.462;10.974;2023-11-19T10:46:41;100975.31;;;11.35;95.25
21640;BME280;10981;45.462;10.974;2023-11-19T10:49:10;100974.19;;;11.49;94.69
21640;BME280;10981;45.462;10.974;2023-11-19T10:51:45;100969.06;;;11.59;93.52
21640;BME280;10981;45.462;10.974;2023-11-19T10:54:19;100968.84;;;11.62;92.71
21640;BME280;10981;45.462;10.974;2023-11-19T10:56:59;100965.38;;;11.61;93.64
21640;BME280;10981;45.462;10.974;2023-11-19T10:59:31;100978.59;;;11.60;92.10
21640;BME280;10981;45.462;10.974;2023-11-19T11:02:07;100977.66;;;11.61;91.45
21640;BME280;10981;45.462;10.974;2023-11-19T11:04:40;100971.56;;;11.60;90.50
21640;BME280;10981;45.462;10.974;2023-11-19T11:07:10;100963.59;;;11.62;90.71
21640;BME280;10981;45.462;10.974;2023-11-19T11:09:39;100969.28;;;11.67;92.00
21640;BME280;10981;45.462;10.974;2023-11-19T11:12:10;100959.88;;;11.65;91.85
21640;BME280;10981;45.462;10.974;2023-11-19T11:14:40;100954.75;;;11.63;90.42
21640;BME280;10981;45.462;10.974;2023-11-19T11:17:10;100944.78;;;11.57;91.67
21640;BME280;10981;45.462;10.974;2023-11-19T11:19:42;100952.16;;;11.52;92.45
21640;BME280;10981;45.462;10.974;2023-11-19T11:22:11;100956.22;;;11.56;95.39
21640;BME280;10981;45.462;10.974;2023-11-19T11:30:45;100948.09;;;11.59;92.42
21640;BME280;10981;45.462;10.974;2023-11-19T11:33:37;100935.09;;;11.69;94.41
21640;BME280;10981;45.462;10.974;2023-11-19T11:36:20;100932.88;;;11.97;94.34
21640;BME280;10981;45.462;10.974;2023-11-19T11:38:50;100926.72;;;12.29;96.39
21640;BME280;10981;45.462;10.974;2023-11-19T11:41:23;100925.66;;;12.62;94.51
21640;BME280;10981;45.462;10.974;2023-11-19T11:43:56;100926.19;;;12.87;90.44
21640;BME280;10981;45.462;10.974;2023-11-19T11:49:06;100912.59;;;13.22;90.53
21640;BME280;10981;45.462;10.974;2023-11-19T11:57:07;100909.66;;;12.65;82.01
21640;BME280;10981;45.462;10.974;2023-11-19T11:59:46;100909.50;;;12.67;86.71
21640;BME280;10981;45.462;10.974;2023-11-19T12:02:19;100912.28;;;12.75;88.44
21640;BME280;10981;45.462;10.974;2023-11-19T12:04:51;100912.63;;;12.82;88.91
21640;BME280;10981;45.462;10.974;2023-11-19T12:07:24;100911.94;;;12.89;87.14
21640;BME280;10981;45.462;10.974;2023-11-19T12:10:06;100905.28;;;12.75;83.17
21640;BME280;10981;45.462;10.974;2023-11-19T12:12:41;100902.53;;;12.87;87.66
21640;BME280;10981;45.462;10.974;2023-11-19T12:15:10;100901.44;;;12.99;87.00
21640;BME280;10981;45.462;10.974;2023-11-19T12:20:14;100892.59;;;12.90;82.08
21640;BME280;10981;45.462;10.974;2023-11-19T12:22:43;100879.34;;;12.92;85.37
21640;BME280;10981;45.462;10.974;2023-11-19T12:25:12;100883.34;;;12.96;85.03
21640;BME280;10981;45.462;10.974;2023-11-19T12:27:46;100891.78;;;13.00;85.35
21640;BME280;10981;45.462;10.974;2023-11-19T12:30:24;100896.91;;;13.01;84.43
21640;BME280;10981;45.462;10.974;2023-11-19T12:32:54;100890.41;;;13.05;86.10
21640;BME280;10981;45.462;10.974;2023-11-19T12:35:23;100883.38;;;13.06;85.56
21640;BME280;10981;45.462;10.974;2023-11-19T12:37:52;100879.63;;;12.99;83.66
21640;BME280;10981;45.462;10.974;2023-11-19T12:40:24;100880.56;;;12.88;84.08
21640;BME280;10981;45.462;10.974;2023-11-19T12:42:54;100880.69;;;12.77;84.11
21640;BME280;10981;45.462;10.974;2023-11-19T12:45:23;100883.94;;;12.69;84.68
21640;BME280;10981;45.462;10.974;2023-11-19T12:48:05;100877.16;;;12.66;84.82
21640;BME280;10981;45.462;10.974;2023-11-19T12:50:56;100862.59;;;12.83;87.45
21640;BME280;10981;45.462;10.974;2023-11-19T12:53:26;100860.81;;;12.94;86.28
21640;BME280;10981;45.462;10.974;2023-11-19T12:55:55;100852.25;;;13.01;85.02
21640;BME280;10981;45.462;10.974;2023-11-19T12:58:34;100844.41;;;13.11;86.72
21640;BME280;10981;45.462;10.974;2023-11-19T13:01:05;100842.44;;;13.13;86.26
21640;BME280;10981;45.462;10.974;2023-11-19T13:03:35;100840.25;;;13.08;83.18
21640;BME280;10981;45.462;10.974;2023-11-19T13:06:08;100838.88;;;13.14;84.66
21640;BME280;10981;45.462;10.974;2023-11-19T13:08:41;100820.34;;;13.06;84.27
21640;BME280;10981;45.462;10.974;2023-11-19T13:11:09;100818.41;;;13.18;85.49